createdAt,value
2023-05-12T00:01:16.836Z,19.08
2023-05-12T00:03:48.482Z,19.07
2023-05-12T00:06:20.044Z,19.05
2023-05-12T00:08:51.874Z,19.04
2023-05-12T00:11:23.491Z,19.03
2023-05-12T00:13:55.677Z,19.02
2023-05-12T00:16:26.874Z,19.01
2023-05-12T00:18:58.660Z,19.00
2023-05-12T00:21:30.192Z,18.98
2023-05-12T00:24:01.419Z,18.96
2023-05-12T00:26:32.829Z,18.94
2023-05-12T00:29:04.674Z,18.92
2023-05-12T00:31:36.612Z,18.90
2023-05-12T00:34:09.120Z,18.89
2023-05-12T00:36:41.592Z,18.89
2023-05-12T00:39:13.787Z,18.88
2023-05-12T00:41:45.173Z,18.88
2023-05-12T00:44:18.505Z,18.88
2023-05-12T00:46:50.544Z,18.87
2023-05-12T00:49:22.733Z,18.87
2023-05-12T00:51:55.669Z,18.85
2023-05-12T00:54:28.159Z,18.84
2023-05-12T00:57:00.419Z,18.83
2023-05-12T00:59:31.892Z,18.83
2023-05-12T01:02:04.431Z,18.84
2023-05-12T01:04:37.689Z,18.86
2023-05-12T01:07:16.161Z,18.86
2023-05-12T01:09:47.620Z,18.86
2023-05-12T01:12:21.843Z,18.87
2023-05-12T01:14:54.858Z,18.86
2023-05-12T01:17:33.089Z,18.85
2023-05-12T01:20:09.086Z,18.84
2023-05-12T01:22:42.470Z,18.84
2023-05-12T01:25:16.968Z,18.83
2023-05-12T01:27:49.817Z,18.83
2023-05-12T01:30:23.338Z,18.82
2023-05-12T01:32:55.239Z,18.78
2023-05-12T01:35:27.240Z,18.76
2023-05-12T01:38:02.965Z,18.74
2023-05-12T01:40:35.086Z,18.74
2023-05-12T01:43:06.354Z,18.74
2023-05-12T01:45:38.783Z,18.73
2023-05-12T01:48:10.211Z,18.71
2023-05-12T01:50:42.557Z,18.69
2023-05-12T01:53:19.024Z,18.68
2023-05-12T01:55:50.068Z,18.66
2023-05-12T01:58:22.269Z,18.64
2023-05-12T02:00:53.576Z,18.63
2023-05-12T02:03:25.498Z,18.63
2023-05-12T02:05:56.784Z,18.64
2023-05-12T02:08:28.145Z,18.64
2023-05-12T02:11:08.822Z,18.64
2023-05-12T02:13:40.885Z,18.61
2023-05-12T02:16:12.251Z,18.57
2023-05-12T02:18:44.560Z,18.56
2023-05-12T02:21:16.724Z,18.55
2023-05-12T02:23:48.140Z,18.55
2023-05-12T02:26:20.035Z,18.55
2023-05-12T02:28:51.738Z,18.56
2023-05-12T02:31:23.317Z,18.57
2023-05-12T02:33:55.572Z,18.58
2023-05-12T02:36:27.584Z,18.59
2023-05-12T02:38:59.086Z,18.60
2023-05-12T02:41:30.744Z,18.62
2023-05-12T02:44:02.918Z,18.70
2023-05-12T02:46:34.390Z,18.73
2023-05-12T02:49:06.191Z,18.75
2023-05-12T02:51:37.403Z,18.75
2023-05-12T02:54:09.236Z,18.74
2023-05-12T02:56:41.014Z,18.73
2023-05-12T02:59:12.469Z,18.71
2023-05-12T03:01:43.897Z,18.69
2023-05-12T03:04:15.435Z,18.67
2023-05-12T03:06:47.616Z,18.67
2023-05-12T03:09:19.024Z,18.66
2023-05-12T03:11:50.531Z,18.65
2023-05-12T03:14:21.957Z,18.64
2023-05-12T03:16:54.086Z,18.61
2023-05-12T03:19:25.689Z,18.59
2023-05-12T03:21:57.549Z,18.58
2023-05-12T03:24:29.672Z,18.57
2023-05-12T03:27:01.386Z,18.55
2023-05-12T03:29:32.917Z,18.54
2023-05-12T03:32:04.897Z,18.53
2023-05-12T03:34:36.263Z,18.53
2023-05-12T03:37:08.231Z,18.51
2023-05-12T03:39:39.741Z,18.51
2023-05-12T03:42:11.493Z,18.47
2023-05-12T03:44:43.902Z,18.41
2023-05-12T03:47:15.610Z,18.37
2023-05-12T03:49:48.154Z,18.33
2023-05-12T03:52:19.762Z,18.30
2023-05-12T03:54:52.432Z,18.26
2023-05-12T03:57:25.163Z,18.20
2023-05-12T03:59:56.473Z,18.15
2023-05-12T04:02:28.250Z,18.10
2023-05-12T04:05:00.214Z,18.06
2023-05-12T04:07:31.998Z,18.03
2023-05-12T04:10:03.767Z,18.01
2023-05-12T04:12:35.480Z,18.00
2023-05-12T04:15:09.031Z,17.97
2023-05-12T04:17:40.756Z,17.96
2023-05-12T04:20:13.334Z,17.95
2023-05-12T04:22:45.576Z,17.94
2023-05-12T04:25:16.989Z,17.93
2023-05-12T04:27:49.013Z,17.92
2023-05-12T04:30:22.435Z,17.91
2023-05-12T04:32:54.219Z,17.90
2023-05-12T04:35:26.183Z,17.88
2023-05-12T04:37:57.563Z,17.90
2023-05-12T04:40:29.309Z,17.99
2023-05-12T04:43:01.298Z,18.10
2023-05-12T04:45:33.059Z,18.21
2023-05-12T04:48:04.827Z,18.33
2023-05-12T04:50:36.183Z,18.42
2023-05-12T04:53:07.419Z,18.45
2023-05-12T04:55:39.281Z,18.50
2023-05-12T04:58:10.746Z,18.58
2023-05-12T05:00:42.363Z,18.62
2023-05-12T05:03:14.798Z,18.62
2023-05-12T05:05:46.509Z,18.62
2023-05-12T05:08:17.751Z,18.68
2023-05-12T05:10:49.311Z,18.76
2023-05-12T05:13:20.666Z,18.82
2023-05-12T05:15:57.727Z,18.84
2023-05-12T05:18:30.847Z,18.84
2023-05-12T05:21:03.089Z,18.82
2023-05-12T05:23:36.811Z,18.84
2023-05-12T05:26:08.459Z,18.85
2023-05-12T05:28:40.786Z,18.87
2023-05-12T05:31:18.300Z,18.92
2023-05-12T05:33:51.516Z,18.93
2023-05-12T05:36:23.291Z,18.90
2023-05-12T05:38:54.736Z,18.86
2023-05-12T05:41:26.117Z,18.82
2023-05-12T05:43:57.855Z,18.81
2023-05-12T05:46:29.481Z,18.80
2023-05-12T05:49:01.050Z,18.80
2023-05-12T05:51:33.623Z,18.79
2023-05-12T05:54:05.104Z,18.76
2023-05-12T05:56:36.775Z,18.75
2023-05-12T05:59:08.820Z,18.77
2023-05-12T06:01:40.884Z,18.82
2023-05-12T06:04:12.203Z,18.86
2023-05-12T06:06:43.913Z,18.97
2023-05-12T06:09:15.867Z,19.02
2023-05-12T06:11:47.318Z,19.03
2023-05-12T06:14:19.855Z,19.03
2023-05-12T06:16:52.156Z,19.03
2023-05-12T06:19:24.089Z,19.04
2023-05-12T06:21:55.666Z,19.05
2023-05-12T06:24:27.325Z,19.05
2023-05-12T06:26:59.192Z,19.06
2023-05-12T06:29:30.561Z,19.06
2023-05-12T06:32:01.991Z,19.08
2023-05-12T06:34:34.745Z,19.10
2023-05-12T06:37:07.392Z,19.15
2023-05-12T06:39:39.290Z,19.20
2023-05-12T06:42:11.519Z,19.27
2023-05-12T06:44:46.504Z,19.35
2023-05-12T06:47:18.038Z,19.41
2023-05-12T06:49:50.150Z,19.47
2023-05-12T06:52:23.985Z,19.50
2023-05-12T06:54:55.324Z,19.53
2023-05-12T06:57:26.834Z,19.52
2023-05-12T06:59:58.277Z,19.49
2023-05-12T07:02:29.843Z,19.48
2023-05-12T07:05:02.057Z,19.49
2023-05-12T07:07:33.601Z,19.49
2023-05-12T07:10:06.651Z,19.45
2023-05-12T07:12:38.486Z,19.42
2023-05-12T07:15:12.093Z,19.39
2023-05-12T07:17:43.763Z,19.40
2023-05-12T07:20:15.989Z,19.45
2023-05-12T07:22:47.274Z,19.45
2023-05-12T07:25:19.160Z,19.46
2023-05-12T07:27:51.298Z,19.48
2023-05-12T07:30:23.371Z,19.50
2023-05-12T07:32:54.806Z,19.50
2023-05-12T07:35:26.180Z,19.48
2023-05-12T07:37:57.562Z,19.48
2023-05-12T07:40:28.924Z,19.52
2023-05-12T07:43:00.379Z,19.54
2023-05-12T07:45:31.986Z,19.52
2023-05-12T07:48:03.769Z,19.53
2023-05-12T07:50:35.380Z,19.56
2023-05-12T07:53:06.962Z,19.57
2023-05-12T07:55:38.281Z,19.58
2023-05-12T07:58:09.533Z,19.63
2023-05-12T08:00:40.911Z,19.67
2023-05-12T08:03:12.160Z,19.71
2023-05-12T08:05:43.985Z,19.83
2023-05-12T08:08:17.159Z,19.93
2023-05-12T08:10:48.842Z,20.01
2023-05-12T08:13:20.410Z,20.09
2023-05-12T08:15:51.945Z,20.07
2023-05-12T08:18:23.501Z,20.03
2023-05-12T08:20:55.889Z,20.01
2023-05-12T08:23:27.335Z,19.98
2023-05-12T08:25:59.006Z,19.95
2023-05-12T08:28:30.441Z,19.94
2023-05-12T08:31:04.109Z,19.95
2023-05-12T08:33:37.139Z,19.95
2023-05-12T08:36:09.946Z,19.96
2023-05-12T08:38:41.448Z,19.98
2023-05-12T08:41:17.920Z,19.96
2023-05-12T08:43:52.931Z,20.00
2023-05-12T08:46:25.040Z,20.07
2023-05-12T08:48:57.016Z,20.12
2023-05-12T08:51:29.592Z,20.18
2023-05-12T08:54:00.812Z,20.27
2023-05-12T08:59:09.753Z,20.57
2023-05-12T09:01:43.149Z,20.71
2023-05-12T09:04:15.910Z,20.80
2023-05-12T09:06:47.899Z,20.87
2023-05-12T09:09:20.778Z,20.93
2023-05-12T09:11:57.767Z,21.02
2023-05-12T09:14:30.809Z,21.14
2023-05-12T09:17:06.283Z,21.20
2023-05-12T09:19:38.208Z,21.24
2023-05-12T09:22:14.950Z,21.31
2023-05-12T09:24:46.898Z,21.31
2023-05-12T09:27:27.918Z,21.29
2023-05-12T09:29:59.976Z,21.26
2023-05-12T09:32:36.848Z,21.22
2023-05-12T09:35:11.471Z,21.18
2023-05-12T09:37:43.071Z,21.12
2023-05-12T09:40:17.559Z,21.03
2023-05-12T09:42:49.615Z,20.93
2023-05-12T09:45:22.893Z,20.84
2023-05-12T09:47:54.367Z,20.75
2023-05-12T09:50:27.543Z,20.63
2023-05-12T09:53:00.336Z,20.54
2023-05-12T09:55:32.444Z,20.49
2023-05-12T09:58:06.507Z,20.46
2023-05-12T10:01:06.100Z,20.43
2023-05-12T10:03:34.789Z,20.40
2023-05-12T10:06:09.418Z,20.47
2023-05-12T10:08:43.615Z,20.61
2023-05-12T10:11:15.831Z,20.77
2023-05-12T10:13:48.390Z,20.88
2023-05-12T10:16:21.864Z,20.94
2023-05-12T10:18:54.132Z,21.03
2023-05-12T10:21:27.035Z,21.11
2023-05-12T10:23:59.148Z,21.15
2023-05-12T10:26:31.091Z,21.16
2023-05-12T10:29:03.128Z,21.17
2023-05-12T10:31:36.306Z,21.27
2023-05-12T10:34:08.215Z,21.41
2023-05-12T10:36:50.255Z,21.49
2023-05-12T10:39:21.531Z,21.46
2023-05-12T10:42:01.743Z,21.40
2023-05-12T10:44:33.202Z,21.29
2023-05-12T10:47:14.933Z,21.21
2023-05-12T10:49:46.828Z,21.18
2023-05-12T10:52:24.435Z,21.19
2023-05-12T10:55:04.312Z,21.20
2023-05-12T10:57:36.581Z,21.17
2023-05-12T11:00:16.467Z,21.10
2023-05-12T11:02:54.751Z,21.02
2023-05-12T11:05:37.724Z,20.98
2023-05-12T11:08:10.050Z,20.95
2023-05-12T11:10:44.534Z,20.92
2023-05-12T11:13:15.585Z,20.90
2023-05-12T11:15:49.054Z,20.98
2023-05-12T11:18:24.668Z,21.15
2023-05-12T11:20:56.163Z,21.30
2023-05-12T11:23:32.161Z,21.39
2023-05-12T11:26:05.125Z,21.44
2023-05-12T11:28:43.689Z,21.48
2023-05-12T11:31:21.317Z,21.44
2023-05-12T11:34:11.872Z,21.46
2023-05-12T11:36:46.632Z,21.56
2023-05-12T11:39:20.955Z,21.66
2023-05-12T11:41:59.321Z,21.74
2023-05-12T11:44:37.652Z,21.89
2023-05-12T11:47:16.899Z,22.03
2023-05-12T11:49:53.175Z,22.13
2023-05-12T11:52:26.122Z,22.23
2023-05-12T11:55:02.090Z,22.28
2023-05-12T11:57:36.047Z,22.31
2023-05-12T12:00:10.140Z,22.29
2023-05-12T12:02:43.899Z,22.23
2023-05-12T12:05:21.952Z,22.15
2023-05-12T12:07:53.913Z,22.19
2023-05-12T12:10:25.665Z,22.22
2023-05-12T12:12:56.900Z,22.15
2023-05-12T12:15:28.220Z,22.08
2023-05-12T12:18:00.135Z,22.07
2023-05-12T12:20:32.052Z,22.09
2023-05-12T12:23:03.557Z,22.08
2023-05-12T12:25:35.036Z,22.00
2023-05-12T12:28:06.749Z,21.93
2023-05-12T12:30:38.306Z,21.84
2023-05-12T12:33:10.477Z,21.74
2023-05-12T12:35:42.079Z,21.63
2023-05-12T12:38:13.723Z,21.67
2023-05-12T12:40:44.862Z,21.74
2023-05-12T12:43:16.565Z,21.85
2023-05-12T12:45:48.687Z,21.89
2023-05-12T12:48:19.987Z,21.84
2023-05-12T12:50:51.299Z,21.79
2023-05-12T12:53:22.688Z,21.77
2023-05-12T12:55:54.404Z,21.66
2023-05-12T12:58:25.894Z,21.54
2023-05-12T13:00:57.095Z,21.46
2023-05-12T13:03:28.906Z,21.39
2023-05-12T13:06:00.580Z,21.33
2023-05-12T13:08:32.451Z,21.26
2023-05-12T13:11:04.310Z,21.29
2023-05-12T13:13:36.029Z,21.36
2023-05-12T13:16:08.690Z,21.42
2023-05-12T13:18:40.076Z,21.41
2023-05-12T13:21:11.541Z,21.34
2023-05-12T13:23:43.165Z,21.18
2023-05-12T13:26:15.079Z,21.08
2023-05-12T13:28:46.583Z,20.91
2023-05-12T13:31:17.964Z,20.72
2023-05-12T13:33:49.495Z,20.57
2023-05-12T13:36:20.843Z,20.41
2023-05-12T13:38:52.426Z,20.35
2023-05-12T13:41:23.562Z,20.36
2023-05-12T13:43:54.889Z,20.35
2023-05-12T13:46:26.701Z,20.36
2023-05-12T13:48:58.163Z,20.34
2023-05-12T13:51:29.751Z,20.30
2023-05-12T13:54:01.366Z,20.26
2023-05-12T13:56:32.771Z,20.20
2023-05-12T13:59:03.782Z,20.20
2023-05-12T14:01:35.509Z,20.18
2023-05-12T14:04:07.121Z,20.16
2023-05-12T14:06:38.352Z,20.24
2023-05-12T14:09:10.419Z,20.34
2023-05-12T14:11:41.766Z,20.44
2023-05-12T14:14:14.062Z,20.44
2023-05-12T14:16:45.449Z,20.49
2023-05-12T14:19:16.770Z,20.56
2023-05-12T14:21:48.007Z,20.53
2023-05-12T14:24:22.558Z,20.47
2023-05-12T14:26:54.950Z,20.40
2023-05-12T14:29:26.203Z,20.33
2023-05-12T14:31:57.652Z,20.31
2023-05-12T14:34:29.575Z,20.27
2023-05-12T14:37:01.769Z,20.22
2023-05-12T14:39:33.114Z,20.19
2023-05-12T14:42:05.141Z,20.25
2023-05-12T14:44:37.044Z,20.34
2023-05-12T14:47:09.518Z,20.39
2023-05-12T14:49:42.081Z,20.44
2023-05-12T14:52:15.877Z,20.49
2023-05-12T14:54:47.117Z,20.57
2023-05-12T14:57:23.491Z,20.67
2023-05-12T14:59:58.830Z,20.78
2023-05-12T15:02:31.197Z,20.92
2023-05-12T15:05:03.657Z,21.05
2023-05-12T15:07:36.257Z,21.15
2023-05-12T15:10:09.349Z,21.23
2023-05-12T15:12:40.666Z,21.28
2023-05-12T15:15:13.443Z,21.30
2023-05-12T15:17:44.799Z,21.30
2023-05-12T15:20:17.664Z,21.27
2023-05-12T15:22:50.455Z,21.27
2023-05-12T15:25:22.155Z,21.29
2023-05-12T15:27:55.633Z,21.27
2023-05-12T15:30:27.314Z,21.28
2023-05-12T15:32:58.695Z,21.32
2023-05-12T15:35:30.394Z,21.36
2023-05-12T15:38:02.227Z,21.37
2023-05-12T15:40:33.732Z,21.38
2023-05-12T15:43:06.397Z,21.39
2023-05-12T15:45:38.588Z,21.43
2023-05-12T15:48:10.993Z,21.43
2023-05-12T15:50:42.660Z,21.46
2023-05-12T15:53:14.029Z,21.48
2023-05-12T15:55:45.276Z,21.47
2023-05-12T15:58:16.378Z,21.45
2023-05-12T16:00:48.099Z,21.43
2023-05-12T16:03:19.518Z,21.38
2023-05-12T16:05:51.393Z,21.30
2023-05-12T16:08:24.149Z,21.24
2023-05-12T16:10:55.267Z,21.18
2023-05-12T16:13:26.862Z,21.12
2023-05-12T16:15:58.289Z,21.06
2023-05-12T16:18:32.329Z,20.99
2023-05-12T16:21:04.207Z,20.93
2023-05-12T16:23:35.888Z,20.90
2023-05-12T16:26:07.650Z,20.86
2023-05-12T16:28:39.107Z,20.80
2023-05-12T16:31:11.515Z,20.76
2023-05-12T16:33:43.315Z,20.77
2023-05-12T16:36:16.116Z,20.77
2023-05-12T16:38:48.536Z,20.76
2023-05-12T16:41:20.343Z,20.77
2023-05-12T16:43:53.501Z,20.77
2023-05-12T16:46:25.205Z,20.76
2023-05-12T16:48:56.533Z,20.77
2023-05-12T16:51:31.445Z,20.74
2023-05-12T16:54:03.550Z,20.69
2023-05-12T16:56:35.622Z,20.63
2023-05-12T16:59:07.119Z,20.60
2023-05-12T17:01:39.746Z,20.59
2023-05-12T17:04:12.486Z,20.57
2023-05-12T17:06:44.192Z,20.57
2023-05-12T17:09:16.007Z,20.54
2023-05-12T17:11:47.210Z,20.49
2023-05-12T17:14:19.477Z,20.46
2023-05-12T17:16:50.953Z,20.45
2023-05-12T17:19:22.561Z,20.44
2023-05-12T17:21:54.074Z,20.41
2023-05-12T17:24:26.042Z,20.38
2023-05-12T17:26:57.942Z,20.35
2023-05-12T17:29:29.694Z,20.31
2023-05-12T17:32:02.281Z,20.26
2023-05-12T17:34:33.790Z,20.21
2023-05-12T17:37:06.106Z,20.18
2023-05-12T17:39:41.117Z,20.13
2023-05-12T17:42:13.589Z,20.08
2023-05-12T17:44:45.434Z,20.02
2023-05-12T17:47:16.976Z,20.07
2023-05-12T17:49:48.590Z,20.12
2023-05-12T17:52:19.905Z,20.12
2023-05-12T17:54:55.022Z,20.16
2023-05-12T17:57:27.022Z,20.21
2023-05-12T17:59:58.884Z,20.21
2023-05-12T18:02:30.978Z,20.26
2023-05-12T18:05:02.588Z,20.27
2023-05-12T18:07:35.239Z,20.23
2023-05-12T18:10:10.338Z,20.24
2023-05-12T18:12:41.852Z,20.27
2023-05-12T18:15:14.337Z,20.28
2023-05-12T18:17:46.005Z,20.35
2023-05-12T18:20:17.873Z,20.40
2023-05-12T18:22:50.968Z,20.50
2023-05-12T18:25:22.608Z,20.71
2023-05-12T18:27:54.119Z,20.84
2023-05-12T18:30:25.722Z,20.90
2023-05-12T18:32:57.186Z,21.02
2023-05-12T18:35:29.593Z,21.09
2023-05-12T18:38:01.301Z,21.16
2023-05-12T18:40:32.781Z,21.26
2023-05-12T18:43:04.225Z,21.31
2023-05-12T18:45:35.412Z,21.35
2023-05-12T18:48:07.107Z,21.37
2023-05-12T18:50:38.464Z,21.32
2023-05-12T18:53:10.172Z,21.26
2023-05-12T18:55:41.706Z,21.29
2023-05-12T18:58:12.877Z,21.35
2023-05-12T19:00:44.027Z,21.39
2023-05-12T19:03:16.459Z,21.50
2023-05-12T19:05:49.101Z,21.61
2023-05-12T19:08:22.425Z,21.66
2023-05-12T19:10:54.044Z,21.65
2023-05-12T19:13:25.313Z,21.53
2023-05-12T19:15:56.373Z,21.32
2023-05-12T19:18:27.907Z,21.13
2023-05-12T19:20:59.443Z,20.96
2023-05-12T19:23:31.722Z,20.80
2023-05-12T19:26:03.262Z,20.65
2023-05-12T19:28:35.110Z,20.52
2023-05-12T19:31:06.658Z,20.40
2023-05-12T19:33:39.054Z,20.29
2023-05-12T19:36:12.197Z,20.20
2023-05-12T19:38:44.397Z,20.12
2023-05-12T19:41:15.837Z,20.06
2023-05-12T19:43:46.885Z,19.99
2023-05-12T19:46:18.060Z,19.93
2023-05-12T19:48:49.955Z,20.00
2023-05-12T19:51:21.589Z,20.02
2023-05-12T19:53:52.798Z,19.94
2023-05-12T19:56:24.454Z,19.88
2023-05-12T19:58:55.884Z,19.81
2023-05-12T20:01:27.352Z,19.75
2023-05-12T20:03:59.498Z,19.69
2023-05-12T20:06:32.083Z,19.65
2023-05-12T20:09:03.462Z,19.61
2023-05-12T20:11:34.819Z,19.57
2023-05-12T20:14:06.162Z,19.54
2023-05-12T20:16:38.436Z,19.50
2023-05-12T20:19:10.038Z,19.45
2023-05-12T20:21:42.565Z,19.38
2023-05-12T20:24:14.074Z,19.32
2023-05-12T20:26:45.453Z,19.28
2023-05-12T20:29:20.970Z,19.28
2023-05-12T20:31:53.740Z,19.45
2023-05-12T20:34:25.453Z,19.68
2023-05-12T20:36:57.721Z,19.81
2023-05-12T20:39:29.266Z,19.77
2023-05-12T20:42:00.961Z,19.68
2023-05-12T20:44:32.381Z,19.57
2023-05-12T20:47:04.359Z,19.48
2023-05-12T20:49:35.567Z,19.38
2023-05-12T20:52:08.779Z,19.30
2023-05-12T20:54:40.149Z,19.23
2023-05-12T20:57:12.548Z,19.17
2023-05-12T20:59:45.295Z,19.13
2023-05-12T21:02:18.926Z,19.10
2023-05-12T21:04:50.683Z,19.08
2023-05-12T21:07:24.594Z,19.04
2023-05-12T21:09:58.325Z,19.00
2023-05-12T21:12:30.228Z,18.96
2023-05-12T21:15:01.976Z,18.92
2023-05-12T21:17:33.270Z,18.87
2023-05-12T21:20:05.147Z,18.83
2023-05-12T21:22:40.857Z,18.78
2023-05-12T21:25:13.137Z,18.74
2023-05-12T21:27:45.885Z,18.70
2023-05-12T21:30:18.286Z,18.65
2023-05-12T21:32:49.760Z,18.60
2023-05-12T21:35:21.421Z,18.55
2023-05-12T21:37:53.087Z,18.52
2023-05-12T21:40:24.788Z,18.49
2023-05-12T21:42:56.291Z,18.49
2023-05-12T21:45:28.109Z,18.47
2023-05-12T21:47:59.547Z,18.44
2023-05-12T21:50:30.833Z,18.40
2023-05-12T21:53:02.422Z,18.38
2023-05-12T21:55:36.781Z,18.33
2023-05-12T21:58:08.357Z,18.31
2023-05-12T22:00:39.836Z,18.30
2023-05-12T22:03:11.468Z,18.29
2023-05-12T22:05:43.025Z,18.28
2023-05-12T22:08:14.450Z,18.28
2023-05-12T22:10:46.217Z,18.29
2023-05-12T22:13:17.872Z,18.30
2023-05-12T22:15:49.683Z,18.30
2023-05-12T22:18:22.077Z,18.31
2023-05-12T22:20:53.354Z,18.31
2023-05-12T22:23:24.539Z,18.31
2023-05-12T22:25:56.125Z,18.30
2023-05-12T22:28:27.882Z,18.29
2023-05-12T22:30:59.560Z,18.28
2023-05-12T22:33:31.909Z,18.27
2023-05-12T22:36:04.599Z,18.25
2023-05-12T22:38:36.088Z,18.24
2023-05-12T22:41:07.820Z,18.23
2023-05-12T22:43:39.302Z,18.23
2023-05-12T22:46:11.077Z,18.23
2023-05-12T22:48:42.829Z,18.24
2023-05-12T22:51:14.653Z,18.25
2023-05-12T22:53:45.987Z,18.26
2023-05-12T22:56:17.622Z,18.26
2023-05-12T22:58:49.480Z,18.27
2023-05-12T23:01:20.882Z,18.27
2023-05-12T23:03:52.546Z,18.28
2023-05-12T23:06:24.554Z,18.27
2023-05-12T23:08:56.569Z,18.27
2023-05-12T23:11:27.934Z,18.27
2023-05-12T23:13:59.789Z,18.28
2023-05-12T23:16:31.286Z,18.28
2023-05-12T23:19:03.917Z,18.28
2023-05-12T23:21:35.867Z,18.27
2023-05-12T23:24:09.042Z,18.27
2023-05-12T23:26:40.702Z,18.27
2023-05-12T23:29:12.117Z,18.29
2023-05-12T23:31:43.880Z,18.29
2023-05-12T23:34:15.419Z,18.29
2023-05-12T23:36:46.555Z,18.29
2023-05-12T23:39:18.054Z,18.29
2023-05-12T23:41:51.199Z,18.29
2023-05-12T23:44:22.479Z,18.29
2023-05-12T23:46:53.747Z,18.29
2023-05-12T23:49:25.204Z,18.29
2023-05-12T23:51:56.627Z,18.28
2023-05-12T23:54:28.999Z,18.26
2023-05-12T23:57:00.417Z,18.25
2023-05-12T23:59:32.089Z,18.24
